Ely Airport Yelland Field
KELY : now visible

Airfield :











YOU CAN JOIN US ON...

 
LOGIN :

Register | Disclaimer

   EN    FR    IT 

 









Legend :    VFR   Marginal VFR   IFR   Intensive IFR   Very Intensive IFR
Visi :
Ceiling :
>= 8 km
>= 3000ft
5 to 8 km
1000 to 3000 ft
1500m to 5 km
500 to 1000 ft
800 to 1500m
200 to 500 ft
< 800m
< 200 ft
Symbols :   Thunderstorms  Fog  Heavy snow  Heavy precipitations  Wind > 20 kt






- Airport Elevation : 6259 ft


KELY - Ely Yelland Field

CURRENT METAR :
  • 300853Z AUTO 17009KT 10SM CLR 05/M04 A3016 RMK AO2 SLP136 T00501039 51003

EXPIRED METARs :
  • 300753Z AUTO 31009KT 10SM CLR 12/M04 A3016 RMK AO2 SLP119 T01171039
  • 300653Z AUTO 00000KT 10SM CLR 07/M03 A3016 RMK AO2 SLP129 T00721033 402560072

TAF KELY
Valid from the 30 at 06:00 until the 01 at 06:00 UTC


300520Z 3006/0106 34010KT P6SM SKC
KZLC FIR / North America



MET'MAP, your aeronautical weather chart ! - Copyright ORBIFLY December 2007 - Disclaimer

ORBIFLY MET'MAP TEAM :

Programming & Development : Alexandra Zaïnal
Original concept : Baudouin d'Aumeries
Technical & hardware support : Manuel Goepfert
Assistance : Marc-Olivier Méhu




SOURCES & CREDITS :

   NOAA       Earth
Advisory